createdAt,value
2018-07-15T00:00:59.489Z,56.72
2018-07-15T00:03:30.485Z,56.59
2018-07-15T00:06:01.480Z,56.57
2018-07-15T00:08:32.489Z,57.18
2018-07-15T00:11:03.519Z,57.85
2018-07-15T00:13:34.498Z,57.83
2018-07-15T00:16:05.489Z,57.67
2018-07-15T00:18:36.505Z,58.10
2018-07-15T00:21:08.302Z,58.18
2018-07-15T00:23:39.365Z,58.19
2018-07-15T00:26:10.545Z,57.72
2018-07-15T00:28:41.492Z,57.69
2018-07-15T00:31:12.505Z,58.29
2018-07-15T00:33:43.484Z,58.49
2018-07-15T00:36:14.513Z,58.14
2018-07-15T00:38:45.518Z,58.65
2018-07-15T00:41:16.526Z,57.95
2018-07-15T00:43:47.481Z,58.28
2018-07-15T00:46:18.484Z,58.65
2018-07-15T00:48:49.481Z,58.89
2018-07-15T00:51:20.464Z,58.85
2018-07-15T00:53:51.501Z,58.26
2018-07-15T00:56:22.509Z,58.83
2018-07-15T00:58:53.521Z,58.89
2018-07-15T01:01:24.485Z,58.33
2018-07-15T01:03:55.473Z,58.47
2018-07-15T01:06:27.006Z,58.56
2018-07-15T01:08:58.285Z,58.89
2018-07-15T01:11:29.357Z,59.36
2018-07-15T01:14:00.365Z,58.54
2018-07-15T01:16:31.445Z,59.22
2018-07-15T01:20:49.489Z,59.20
2018-07-15T01:23:20.479Z,59.43
2018-07-15T01:25:51.477Z,59.12
2018-07-15T01:28:22.496Z,59.67
2018-07-15T01:30:53.485Z,59.94
2018-07-15T01:33:24.489Z,59.93
2018-07-15T01:35:55.465Z,60.06
2018-07-15T01:38:26.513Z,60.02
2018-07-15T01:40:57.477Z,59.59
2018-07-15T01:43:28.473Z,59.79
2018-07-15T01:45:59.477Z,59.57
2018-07-15T01:48:30.481Z,59.68
2018-07-15T01:51:01.498Z,60.24
2018-07-15T01:53:32.537Z,60.37
2018-07-15T01:56:03.547Z,59.93
2018-07-15T01:58:34.665Z,60.37
2018-07-15T02:01:05.534Z,60.14
2018-07-15T02:03:36.494Z,60.06
2018-07-15T02:06:07.538Z,60.63
2018-07-15T02:08:38.480Z,60.61
2018-07-15T02:11:10.230Z,60.37
2018-07-15T02:13:41.625Z,60.35
2018-07-15T02:16:12.519Z,61.14
2018-07-15T02:18:43.504Z,60.29
2018-07-15T02:21:14.498Z,61.18
2018-07-15T02:23:45.488Z,60.17
2018-07-15T02:26:16.449Z,60.71
2018-07-15T02:28:47.492Z,60.54
2018-07-15T02:31:18.458Z,61.11
2018-07-15T02:36:35.754Z,61.10
2018-07-15T02:39:09.669Z,60.94
2018-07-15T02:41:40.493Z,61.40
2018-07-15T02:44:11.481Z,61.77
2018-07-15T02:46:43.448Z,62.23
2018-07-15T02:49:14.484Z,61.67
2018-07-15T02:51:45.469Z,62.39
2018-07-15T02:54:16.552Z,61.58
2018-07-15T02:56:47.659Z,62.27
2018-07-15T02:59:18.517Z,62.09
2018-07-15T03:01:49.489Z,61.74
2018-07-15T03:04:20.505Z,61.56
2018-07-15T03:06:51.510Z,62.13
2018-07-15T03:09:22.520Z,61.75
2018-07-15T03:11:53.552Z,62.30
2018-07-15T03:14:24.463Z,63.06
2018-07-15T03:16:55.494Z,62.17
2018-07-15T03:19:26.486Z,63.09
2018-07-15T03:21:57.477Z,62.76
2018-07-15T03:24:28.506Z,62.33
2018-07-15T03:26:59.473Z,62.31
2018-07-15T03:29:30.493Z,62.86
2018-07-15T03:32:01.456Z,62.51
2018-07-15T03:34:32.521Z,62.28
2018-07-15T03:37:03.495Z,62.40
2018-07-15T03:39:34.640Z,62.93
2018-07-15T03:42:05.593Z,62.94
2018-07-15T03:44:36.511Z,62.40
2018-07-15T03:47:07.517Z,62.74
2018-07-15T03:49:38.497Z,63.30
2018-07-15T03:52:09.520Z,63.33
2018-07-15T03:54:40.490Z,63.38
2018-07-15T03:57:11.531Z,63.10
2018-07-15T03:59:42.484Z,62.95
2018-07-15T04:02:13.517Z,63.50
2018-07-15T04:04:44.529Z,63.29
2018-07-15T04:07:15.494Z,63.53
2018-07-15T04:09:46.510Z,62.99
2018-07-15T04:12:17.530Z,63.58
2018-07-15T04:14:48.558Z,64.21
2018-07-15T04:17:19.525Z,63.43
2018-07-15T04:19:50.518Z,63.70
2018-07-15T04:22:21.519Z,63.77
2018-07-15T04:24:52.524Z,64.02
2018-07-15T04:27:23.497Z,63.95
2018-07-15T04:29:54.491Z,63.59
2018-07-15T04:32:25.520Z,64.06
2018-07-15T04:34:56.551Z,64.30
2018-07-15T04:37:27.491Z,64.01
2018-07-15T04:39:58.521Z,63.31
2018-07-15T04:42:29.509Z,63.89
2018-07-15T04:45:00.509Z,63.51
2018-07-15T04:47:31.491Z,63.89
2018-07-15T04:50:02.518Z,63.66
2018-07-15T04:52:33.521Z,64.08
2018-07-15T04:55:04.562Z,63.98
2018-07-15T04:57:35.516Z,64.12
2018-07-15T05:00:06.677Z,64.13
2018-07-15T05:02:37.562Z,63.88
2018-07-15T05:05:08.495Z,63.97
2018-07-15T05:07:39.492Z,63.31
2018-07-15T05:10:10.507Z,63.12
2018-07-15T05:12:41.501Z,63.01
2018-07-15T05:15:12.517Z,62.66
2018-07-15T05:17:43.510Z,63.00
2018-07-15T05:20:14.561Z,63.36
2018-07-15T05:22:45.501Z,63.06
2018-07-15T05:25:16.510Z,63.00
2018-07-15T05:27:47.539Z,62.54
2018-07-15T05:30:18.497Z,63.49
2018-07-15T05:32:49.505Z,62.05
2018-07-15T05:35:20.510Z,61.85
2018-07-15T05:37:51.542Z,61.68
2018-07-15T05:40:22.485Z,61.77
2018-07-15T05:42:53.501Z,61.67
2018-07-15T05:45:24.570Z,61.61
2018-07-15T05:47:55.520Z,60.73
2018-07-15T05:50:26.507Z,61.34
2018-07-15T05:52:57.497Z,61.30
2018-07-15T05:55:28.547Z,60.43
2018-07-15T05:57:59.607Z,60.06
2018-07-15T06:00:30.489Z,59.26
2018-07-15T06:03:01.565Z,60.01
2018-07-15T06:05:32.513Z,59.47
2018-07-15T06:08:03.540Z,59.67
2018-07-15T06:10:34.520Z,59.67
2018-07-15T06:13:05.555Z,60.10
2018-07-15T06:15:36.751Z,58.76
2018-07-15T06:18:07.574Z,59.74
2018-07-15T06:20:38.485Z,58.34
2018-07-15T06:23:09.468Z,58.90
2018-07-15T06:25:40.517Z,59.03
2018-07-15T06:28:11.452Z,58.49
2018-07-15T06:30:42.501Z,58.00
2018-07-15T06:33:13.485Z,58.16
2018-07-15T06:35:44.510Z,57.60
2018-07-15T06:38:15.479Z,57.43
2018-07-15T06:40:46.472Z,56.81
2018-07-15T06:43:17.444Z,55.89
2018-07-15T06:45:48.758Z,56.32
2018-07-15T06:48:19.545Z,55.81
2018-07-15T06:50:50.502Z,56.43
2018-07-15T06:53:21.488Z,56.56
2018-07-15T06:58:22.422Z,55.77
2018-07-15T07:00:53.450Z,56.45
2018-07-15T07:03:24.469Z,54.89
2018-07-15T07:05:55.464Z,54.56
2018-07-15T07:08:26.448Z,55.04
2018-07-15T07:10:57.506Z,54.94
2018-07-15T07:13:28.473Z,54.04
2018-07-15T07:15:59.809Z,54.13
2018-07-15T07:18:30.285Z,53.51
2018-07-15T07:21:01.368Z,54.09
2018-07-15T07:23:32.502Z,55.08
2018-07-15T07:26:03.476Z,53.96
2018-07-15T07:28:34.502Z,53.99
2018-07-15T07:31:05.543Z,53.98
2018-07-15T07:33:36.481Z,52.49
2018-07-15T07:36:07.501Z,53.31
2018-07-15T07:38:38.516Z,54.30
2018-07-15T07:41:09.572Z,53.87
2018-07-15T07:43:40.465Z,53.83
2018-07-15T07:46:11.484Z,53.16
2018-07-15T07:48:42.473Z,52.90
2018-07-15T07:51:13.476Z,52.90
2018-07-15T07:53:44.464Z,51.38
2018-07-15T07:56:15.477Z,51.28
2018-07-15T07:58:46.485Z,52.46
2018-07-15T08:01:17.478Z,51.80
2018-07-15T08:03:48.469Z,50.51
2018-07-15T08:06:19.481Z,51.11
2018-07-15T08:08:50.497Z,50.69
2018-07-15T08:11:21.499Z,50.04
2018-07-15T08:13:52.537Z,50.05
2018-07-15T08:16:23.497Z,49.53
2018-07-15T08:18:54.596Z,49.19
2018-07-15T08:21:25.506Z,49.72
2018-07-15T08:23:56.500Z,49.07
2018-07-15T08:26:27.490Z,48.44
2018-07-15T08:28:58.509Z,47.14
2018-07-15T08:31:29.476Z,46.71
2018-07-15T08:34:00.503Z,47.09
2018-07-15T08:36:31.500Z,45.37
2018-07-15T08:39:02.526Z,45.28
2018-07-15T08:41:33.530Z,45.03
2018-07-15T08:44:04.493Z,43.83
2018-07-15T08:46:35.495Z,43.06
2018-07-15T08:49:06.490Z,43.95
2018-07-15T08:51:37.505Z,43.11
2018-07-15T08:54:08.484Z,41.23
2018-07-15T08:56:39.506Z,41.40
2018-07-15T08:59:10.486Z,43.46
2018-07-15T09:01:41.500Z,39.84
2018-07-15T09:04:12.497Z,39.45
2018-07-15T09:06:43.558Z,40.27
2018-07-15T09:09:15.337Z,39.95
2018-07-15T09:11:46.523Z,38.93
2018-07-15T09:14:17.482Z,38.92
2018-07-15T09:16:48.506Z,37.06
2018-07-15T09:19:19.496Z,36.05
2018-07-15T09:21:50.577Z,38.55
2018-07-15T09:24:21.589Z,37.24
2018-07-15T09:26:52.531Z,37.00
2018-07-15T09:29:23.532Z,36.83
2018-07-15T09:31:54.543Z,36.25
2018-07-15T09:34:25.488Z,33.84
2018-07-15T09:36:56.472Z,34.23
2018-07-15T09:39:27.505Z,33.03
2018-07-15T09:41:58.478Z,35.30
2018-07-15T09:44:29.468Z,34.06
2018-07-15T09:47:00.493Z,32.32
2018-07-15T09:49:31.469Z,31.59
2018-07-15T09:52:02.490Z,32.45
2018-07-15T09:54:33.478Z,32.09
2018-07-15T09:57:04.492Z,32.15
2018-07-15T09:59:35.489Z,31.90
2018-07-15T10:02:06.506Z,31.14
2018-07-15T10:04:37.536Z,31.26
2018-07-15T10:07:08.560Z,32.98
2018-07-15T10:09:39.547Z,31.59
2018-07-15T10:12:10.672Z,30.86
2018-07-15T10:14:41.544Z,31.61
2018-07-15T10:17:12.765Z,31.77
2018-07-15T10:19:43.560Z,30.25
2018-07-15T10:22:14.491Z,28.35
2018-07-15T10:24:45.505Z,27.35
2018-07-15T10:27:16.499Z,26.04
2018-07-15T10:29:47.509Z,27.22
2018-07-15T10:32:18.492Z,26.83
2018-07-15T10:34:49.530Z,26.64
2018-07-15T10:37:20.489Z,26.36
2018-07-15T10:39:51.473Z,27.06
2018-07-15T10:42:22.501Z,27.67
2018-07-15T10:44:53.517Z,26.99
2018-07-15T10:47:24.527Z,26.95
2018-07-15T10:49:55.525Z,27.19
2018-07-15T10:52:26.514Z,26.79
2018-07-15T10:54:57.483Z,25.95
2018-07-15T10:57:28.497Z,26.36
2018-07-15T10:59:59.885Z,24.78
2018-07-15T11:02:30.755Z,25.20
2018-07-15T11:05:02.388Z,25.32
2018-07-15T11:07:33.524Z,24.64
2018-07-15T11:10:04.562Z,24.65
2018-07-15T11:12:35.576Z,24.71
2018-07-15T11:15:06.532Z,23.68
2018-07-15T11:17:37.562Z,25.05
2018-07-15T11:20:09.469Z,24.33
2018-07-15T11:22:40.506Z,24.44
2018-07-15T11:25:11.482Z,25.76
2018-07-15T11:27:42.459Z,26.29
2018-07-15T11:30:13.601Z,25.94
2018-07-15T11:32:44.474Z,26.95
2018-07-15T11:35:15.574Z,25.92
2018-07-15T11:37:46.496Z,26.00
2018-07-15T11:40:17.533Z,26.26
2018-07-15T11:42:48.498Z,26.02
2018-07-15T11:45:19.456Z,28.00
2018-07-15T11:47:50.460Z,26.93
2018-07-15T11:50:21.518Z,26.61
2018-07-15T11:52:52.453Z,26.87
2018-07-15T11:55:23.791Z,27.62
2018-07-15T11:57:54.229Z,27.74
2018-07-15T12:00:25.350Z,27.74
2018-07-15T12:02:56.407Z,27.59
2018-07-15T12:05:27.473Z,27.92
2018-07-15T12:07:58.452Z,27.10
2018-07-15T12:10:29.459Z,28.52
2018-07-15T12:13:00.461Z,27.32
2018-07-15T12:15:31.453Z,27.69
2018-07-15T12:18:02.537Z,26.19
2018-07-15T12:20:33.539Z,26.30
2018-07-15T12:23:04.486Z,26.56
2018-07-15T12:25:35.541Z,25.68
2018-07-15T12:28:06.517Z,25.05
2018-07-15T12:30:37.498Z,25.16
2018-07-15T12:33:08.514Z,27.24
2018-07-15T12:35:39.545Z,27.98
2018-07-15T12:38:10.609Z,26.04
2018-07-15T12:40:41.501Z,25.69
2018-07-15T12:43:12.493Z,25.22
2018-07-15T12:45:43.517Z,25.63
2018-07-15T12:48:14.489Z,24.45
2018-07-15T12:50:45.486Z,25.08
2018-07-15T12:53:16.574Z,24.02
2018-07-15T12:55:47.497Z,25.10
2018-07-15T12:58:18.477Z,26.05
2018-07-15T13:00:49.478Z,25.28
2018-07-15T13:03:20.509Z,25.91
2018-07-15T13:05:51.501Z,25.86
2018-07-15T13:09:01.557Z,25.78
2018-07-15T13:11:32.819Z,25.79
2018-07-15T13:14:03.286Z,23.73
2018-07-15T13:16:34.773Z,24.43
2018-07-15T13:19:05.577Z,23.84
2018-07-15T13:21:36.488Z,23.82
2018-07-15T13:24:09.302Z,24.51
2018-07-15T13:26:40.414Z,23.39
2018-07-15T13:29:11.494Z,23.63
2018-07-15T13:31:44.233Z,22.69
2018-07-15T13:34:16.317Z,23.27
2018-07-15T13:36:48.497Z,23.29
2018-07-15T13:39:19.633Z,22.29
2018-07-15T13:41:50.798Z,21.68
2018-07-15T13:44:21.678Z,21.94
2018-07-15T13:46:53.301Z,22.88
2018-07-15T13:49:24.573Z,22.20
2018-07-15T13:51:55.485Z,22.29
2018-07-15T13:54:26.513Z,21.21
2018-07-15T13:56:57.526Z,23.14
2018-07-15T13:59:28.618Z,21.50
2018-07-15T14:01:59.570Z,22.36
2018-07-15T14:04:30.584Z,22.57
2018-07-15T14:07:01.607Z,23.05
2018-07-15T14:09:32.621Z,21.23
2018-07-15T14:12:03.716Z,21.85
2018-07-15T14:14:34.663Z,21.23
2018-07-15T14:17:05.545Z,21.24
2018-07-15T14:19:36.683Z,22.18
2018-07-15T14:22:07.731Z,21.20
2018-07-15T14:24:38.650Z,20.80
2018-07-15T14:27:09.599Z,21.13
2018-07-15T14:29:40.585Z,20.86
2018-07-15T14:32:11.604Z,21.33
2018-07-15T14:34:42.634Z,21.39
2018-07-15T14:37:13.568Z,20.61
2018-07-15T14:39:45.280Z,20.43
2018-07-15T14:42:16.817Z,21.41
2018-07-15T14:44:47.298Z,20.54
2018-07-15T14:47:18.403Z,21.52
2018-07-15T14:49:49.572Z,22.87
2018-07-15T14:52:20.859Z,22.80
2018-07-15T14:54:51.762Z,22.96
2018-07-15T14:57:22.625Z,22.60
2018-07-15T14:59:53.593Z,22.74
2018-07-15T15:02:24.492Z,22.04
2018-07-15T15:04:55.576Z,21.84
2018-07-15T15:07:26.538Z,23.45
2018-07-15T15:09:57.537Z,23.16
2018-07-15T15:12:28.550Z,23.82
2018-07-15T15:14:59.530Z,23.18
2018-07-15T15:17:30.600Z,23.10
2018-07-15T15:20:01.555Z,23.40
2018-07-15T15:22:32.546Z,25.01
2018-07-15T15:25:03.659Z,23.85
2018-07-15T15:27:34.693Z,24.46
2018-07-15T15:30:10.478Z,25.93
2018-07-15T15:32:41.655Z,24.27
2018-07-15T15:35:12.773Z,23.90
2018-07-15T15:37:43.689Z,24.61
2018-07-15T15:40:14.690Z,24.07
2018-07-15T15:42:45.662Z,24.69
2018-07-15T15:45:16.703Z,25.15
2018-07-15T15:47:47.574Z,25.13
2018-07-15T15:50:18.494Z,23.95
2018-07-15T15:52:49.573Z,24.49
2018-07-15T15:55:20.524Z,24.86
2018-07-15T15:57:51.501Z,24.40
2018-07-15T16:00:23.026Z,24.44
2018-07-15T16:02:54.480Z,25.34
2018-07-15T16:05:25.498Z,24.99
2018-07-15T16:07:56.483Z,24.97
2018-07-15T16:10:27.493Z,24.63
2018-07-15T16:12:58.507Z,24.89
2018-07-15T16:15:29.500Z,25.05
2018-07-15T16:18:00.490Z,24.95
2018-07-15T16:20:31.529Z,25.12
2018-07-15T16:23:02.525Z,25.81
2018-07-15T16:25:33.485Z,26.56
2018-07-15T16:28:04.478Z,26.26
2018-07-15T16:30:35.480Z,26.05
2018-07-15T16:33:06.714Z,26.41
2018-07-15T16:35:37.691Z,24.99
2018-07-15T16:38:08.542Z,25.65
2018-07-15T16:40:39.517Z,25.85
2018-07-15T16:43:11.912Z,25.84
2018-07-15T16:45:42.714Z,25.45
2018-07-15T16:48:13.577Z,26.13
2018-07-15T16:50:45.036Z,25.98
2018-07-15T16:53:16.240Z,26.18
2018-07-15T16:55:47.373Z,26.15
2018-07-15T16:58:18.542Z,27.16
2018-07-15T17:03:36.493Z,28.30
2018-07-15T17:06:07.449Z,27.37
2018-07-15T17:08:38.492Z,27.18
2018-07-15T17:11:09.496Z,28.53
2018-07-15T17:13:40.432Z,28.30
2018-07-15T17:16:11.588Z,28.07
2018-07-15T17:18:42.512Z,27.78
2018-07-15T17:21:13.489Z,28.48
2018-07-15T17:23:44.498Z,30.23
2018-07-15T17:26:15.498Z,36.62
2018-07-15T17:28:46.500Z,39.40
2018-07-15T17:31:17.505Z,39.46
2018-07-15T17:33:48.549Z,40.46
2018-07-15T17:36:19.606Z,42.37
2018-07-15T17:38:50.495Z,41.65
2018-07-15T17:41:21.507Z,43.38
2018-07-15T17:43:52.534Z,43.68
2018-07-15T17:46:23.641Z,46.51
2018-07-15T17:48:54.666Z,48.49
2018-07-15T17:51:25.661Z,48.41
2018-07-15T17:55:13.493Z,48.62
2018-07-15T17:57:44.517Z,47.84
2018-07-15T18:00:15.550Z,48.64
2018-07-15T18:02:46.521Z,47.76
2018-07-15T18:05:17.477Z,48.17
2018-07-15T18:07:48.543Z,48.22
2018-07-15T18:10:19.586Z,49.43
2018-07-15T18:12:50.565Z,49.34
2018-07-15T18:15:21.537Z,50.41
2018-07-15T18:17:52.685Z,50.52
2018-07-15T18:20:23.645Z,49.91
2018-07-15T18:22:54.537Z,50.54
2018-07-15T18:25:25.494Z,50.58
2018-07-15T18:27:56.569Z,50.62
2018-07-15T18:30:27.602Z,51.36
2018-07-15T18:32:58.530Z,51.30
2018-07-15T18:35:29.558Z,51.20
2018-07-15T18:38:00.472Z,51.60
2018-07-15T18:40:31.481Z,51.64
2018-07-15T18:43:02.500Z,50.57
2018-07-15T18:45:33.476Z,51.48
2018-07-15T18:48:04.541Z,51.63
2018-07-15T18:50:35.490Z,51.39
2018-07-15T18:53:06.613Z,51.08
2018-07-15T18:55:37.522Z,51.47
2018-07-15T18:58:08.494Z,51.51
2018-07-15T19:00:39.519Z,51.67
2018-07-15T19:03:10.704Z,52.22
2018-07-15T19:05:41.553Z,51.37
2018-07-15T19:08:12.527Z,51.54
2018-07-15T19:10:43.477Z,52.37
2018-07-15T19:13:14.502Z,51.59
2018-07-15T19:15:45.579Z,52.36
2018-07-15T19:18:16.544Z,51.92
2018-07-15T19:20:47.511Z,51.97
2018-07-15T19:23:18.488Z,52.90
2018-07-15T19:25:49.517Z,52.21
2018-07-15T19:28:22.631Z,51.44
2018-07-15T19:30:53.549Z,51.69
2018-07-15T19:33:24.570Z,51.15
2018-07-15T19:35:55.562Z,52.49
2018-07-15T19:38:26.605Z,52.19
2018-07-15T19:40:57.542Z,53.85
2018-07-15T19:43:28.543Z,53.26
2018-07-15T19:45:59.515Z,52.90
2018-07-15T19:48:30.591Z,53.59
2018-07-15T19:51:01.549Z,53.38
2018-07-15T19:53:32.508Z,52.74
2018-07-15T19:56:03.500Z,52.62
2018-07-15T19:58:34.514Z,53.65
2018-07-15T20:01:05.588Z,53.18
2018-07-15T20:03:36.502Z,52.62
2018-07-15T20:06:07.803Z,53.73
2018-07-15T20:08:38.626Z,53.66
2018-07-15T20:11:09.561Z,53.77
2018-07-15T20:13:40.526Z,53.76
2018-07-15T20:16:11.514Z,53.75
2018-07-15T20:18:42.499Z,54.10
2018-07-15T20:21:13.504Z,53.55
2018-07-15T20:23:44.529Z,54.77
2018-07-15T20:26:15.485Z,54.33
2018-07-15T20:28:47.572Z,55.54
2018-07-15T20:31:18.610Z,55.28
2018-07-15T20:33:49.644Z,54.62
2018-07-15T20:36:20.502Z,54.43
2018-07-15T20:38:51.615Z,54.93
2018-07-15T20:41:23.510Z,54.98
2018-07-15T20:43:54.569Z,54.16
2018-07-15T20:46:25.533Z,54.17
2018-07-15T20:48:57.043Z,54.60
2018-07-15T20:51:28.567Z,54.56
2018-07-15T20:53:59.681Z,54.25
2018-07-15T20:56:31.509Z,54.20
2018-07-15T20:59:02.642Z,54.96
2018-07-15T21:01:33.689Z,54.87
2018-07-15T21:04:05.779Z,54.67
2018-07-15T21:06:37.394Z,54.71
2018-07-15T21:09:09.430Z,53.93
2018-07-15T21:11:40.810Z,54.24
2018-07-15T21:14:12.374Z,53.76
2018-07-15T21:16:43.657Z,53.31
2018-07-15T21:19:14.633Z,52.94
2018-07-15T21:21:45.667Z,52.49
2018-07-15T21:24:17.513Z,52.66
2018-07-15T21:26:49.297Z,53.18
2018-07-15T21:29:20.420Z,52.53
2018-07-15T21:31:51.530Z,53.33
2018-07-15T21:34:22.741Z,53.88
2018-07-15T21:36:53.963Z,52.87
2018-07-15T21:39:25.818Z,52.77
2018-07-15T21:41:56.460Z,52.97
2018-07-15T21:44:27.705Z,53.01
2018-07-15T21:46:59.010Z,53.03
2018-07-15T21:49:30.489Z,52.49
2018-07-15T21:52:01.469Z,52.16
2018-07-15T21:54:32.469Z,52.06
2018-07-15T21:57:09.634Z,52.20
2018-07-15T21:59:41.026Z,51.81
2018-07-15T22:02:12.747Z,51.65
2018-07-15T22:04:43.595Z,52.11
2018-07-15T22:07:37.521Z,51.52
2018-07-15T22:10:50.367Z,52.28
2018-07-15T22:13:22.445Z,51.97
2018-07-15T22:15:54.231Z,51.22
2018-07-15T22:18:25.388Z,51.86
2018-07-15T22:20:56.498Z,52.24
2018-07-15T22:23:27.487Z,51.21
2018-07-15T22:25:58.484Z,51.66
2018-07-15T22:28:29.503Z,51.38
2018-07-15T22:31:00.505Z,51.55
2018-07-15T22:33:31.467Z,51.82
2018-07-15T22:36:02.566Z,52.01
2018-07-15T22:38:33.483Z,51.86
2018-07-15T22:41:04.532Z,52.76
2018-07-15T22:43:35.482Z,52.48
2018-07-15T22:46:06.538Z,52.74
2018-07-15T22:48:37.655Z,53.53
2018-07-15T22:51:09.223Z,53.06
2018-07-15T22:53:42.284Z,53.56
2018-07-15T22:56:13.350Z,53.83
2018-07-15T22:58:44.502Z,53.44
2018-07-15T23:01:15.513Z,54.18
2018-07-15T23:03:46.556Z,54.85
2018-07-15T23:06:22.438Z,55.56
2018-07-15T23:08:53.453Z,56.72
2018-07-15T23:11:24.482Z,56.56
2018-07-15T23:13:55.788Z,57.04
2018-07-15T23:16:26.655Z,57.16
2018-07-15T23:18:57.494Z,57.34
2018-07-15T23:21:28.481Z,57.87
2018-07-15T23:23:59.495Z,57.02
2018-07-15T23:26:30.487Z,57.42
2018-07-15T23:29:01.469Z,56.38
2018-07-15T23:31:32.498Z,56.56
2018-07-15T23:34:03.473Z,57.12
2018-07-15T23:36:34.514Z,57.04
2018-07-15T23:39:06.227Z,58.11
2018-07-15T23:41:37.423Z,56.60
2018-07-15T23:44:08.382Z,57.78
2018-07-15T23:46:39.467Z,57.64
2018-07-15T23:49:10.484Z,58.71
2018-07-15T23:51:41.489Z,57.49
2018-07-15T23:54:12.513Z,57.91
2018-07-15T23:56:43.458Z,58.14
2018-07-15T23:59:14.501Z,57.28
